Strona główna
METAR-TAF:

METAR-TAF

Lotnisko :

Port lotniczy Roskilde

Roskilde, Dania

Szerokość geograficzna: 55-35N, Długość geograficzna: 012-08E, wysokość: 44 m

Aktualna obserwacja pogody

Raport powstał 28 minut temu, godzina 05:20 UTC
Wiatr 12 kt od zachodnio-północny zachód
Temperatura 7°C
Wilgotność 87%
Ciśnienie 1020 hPa
Widzialność 10 km lub więcej

METAR: EKRK 090520Z AUTO 30012KT 9999 OVC010/// 07/05 Q1020

czas: 07:48 (05:48 UTC)

Prognoza

Raport powstał 27 minut temu, godzina 05:21 UTC
Prognoza ważna od 09 godzina 06 UTC do 09 godzina 15 UTC
Wiatr 12 kt od północny zachód
Widzialność 10 km lub więcej
Przerywane chmury na wysokości 800 ft
Stopniowe zmiany
od 09 godzina 06 UTC do 09 godzina 08 UTC
Mało chmury na wysokości 3000 ft
Przejściowo
od 09 godzina 08 UTC do 09 godzina 15 UTC
Wiatr 15 kt od północny zachód w porywach dochodzący do 25 kt

TAF: EKRK 090521Z 0906/0915 31012KT 9999 BKN008 BECMG 0906/0908 FEW030 TEMPO 0908/0915 32015G25KT

Obserwacja i prognoza pogody dla ponad 4000 lotnisk (raport METAR i TAF).

Dostępne stacje oznaczono żółtymi i czerwonymi punktami na mapie.

Najedź kursorem aby zobaczyć nazwę stacji.

Kliknij aby zobaczyć obserwacje i prognozy pogody.

Aby zmienić mapę: kliknij na zielony przycisk z czarnym krzyżykiem, aby powiększyć; na zielony przycisk z myślnikiem, aby pomniejszyć; na zielone strzałki, aby przejść do map sąsiednich.


METAR-TAF: